sensor_id;sensor_type;location;lat;lon;timestamp;temperature;humidity
6375;DHT22;35400;45.472;-122.822;2023-06-05T00:01:54;24.00;40.90
6375;DHT22;35400;45.472;-122.822;2023-06-05T00:04:21;24.00;39.90
6375;DHT22;35400;45.472;-122.822;2023-06-05T00:06:50;24.00;39.70
6375;DHT22;35400;45.472;-122.822;2023-06-05T00:09:19;24.00;39.80
6375;DHT22;35400;45.472;-122.822;2023-06-05T00:11:46;24.00;40.00
6375;DHT22;35400;45.472;-122.822;2023-06-05T00:14:13;24.00;41.40
6375;DHT22;35400;45.472;-122.822;2023-06-05T00:16:40;23.90;39.30
6375;DHT22;35400;45.472;-122.822;2023-06-05T00:19:07;23.80;38.70
6375;DHT22;35400;45.472;-122.822;2023-06-05T00:21:34;23.70;38.10
6375;DHT22;35400;45.472;-122.822;2023-06-05T00:24:01;23.70;37.50
6375;DHT22;35400;45.472;-122.822;2023-06-05T00:26:28;23.70;39.00
6375;DHT22;35400;45.472;-122.822;2023-06-05T00:28:55;23.70;39.40
6375;DHT22;35400;45.472;-122.822;2023-06-05T00:31:22;23.70;40.40
6375;DHT22;35400;45.472;-122.822;2023-06-05T00:33:49;23.70;40.50
6375;DHT22;35400;45.472;-122.822;2023-06-05T00:36:18;23.70;39.70
6375;DHT22;35400;45.472;-122.822;2023-06-05T00:38:50;23.70;37.80
6375;DHT22;35400;45.472;-122.822;2023-06-05T00:41:17;23.70;38.60
6375;DHT22;35400;45.472;-122.822;2023-06-05T00:43:45;23.70;38.50
6375;DHT22;35400;45.472;-122.822;2023-06-05T00:46:12;23.70;37.90
6375;DHT22;35400;45.472;-122.822;2023-06-05T00:48:40;23.70;37.20
6375;DHT22;35400;45.472;-122.822;2023-06-05T00:51:09;23.60;36.60
6375;DHT22;35400;45.472;-122.822;2023-06-05T00:53:42;23.60;37.10
6375;DHT22;35400;45.472;-122.822;2023-06-05T00:56:11;23.50;37.50
6375;DHT22;35400;45.472;-122.822;2023-06-05T00:58:38;23.50;38.50
6375;DHT22;35400;45.472;-122.822;2023-06-05T01:01:06;23.40;39.10
6375;DHT22;35400;45.472;-122.822;2023-06-05T01:03:33;23.40;37.00
6375;DHT22;35400;45.472;-122.822;2023-06-05T01:06:01;23.40;36.90
6375;DHT22;35400;45.472;-122.822;2023-06-05T01:08:33;23.30;36.80
6375;DHT22;35400;45.472;-122.822;2023-06-05T01:11:22;23.30;37.00
6375;DHT22;35400;45.472;-122.822;2023-06-05T01:14:08;23.20;35.00
6375;DHT22;35400;45.472;-122.822;2023-06-05T01:16:40;23.20;35.30
6375;DHT22;35400;45.472;-122.822;2023-06-05T01:19:07;23.10;35.70
6375;DHT22;35400;45.472;-122.822;2023-06-05T01:21:36;23.10;35.20
6375;DHT22;35400;45.472;-122.822;2023-06-05T01:24:03;23.10;35.90
6375;DHT22;35400;45.472;-122.822;2023-06-05T01:26:45;23.10;35.60
6375;DHT22;35400;45.472;-122.822;2023-06-05T01:32:25;23.00;35.70
6375;DHT22;35400;45.472;-122.822;2023-06-05T01:34:57;22.90;35.30
6375;DHT22;35400;45.472;-122.822;2023-06-05T01:37:27;22.90;35.20
6375;DHT22;35400;45.472;-122.822;2023-06-05T01:39:56;22.90;35.20
6375;DHT22;35400;45.472;-122.822;2023-06-05T01:42:24;22.90;34.70
6375;DHT22;35400;45.472;-122.822;2023-06-05T01:44:51;22.80;34.80
6375;DHT22;35400;45.472;-122.822;2023-06-05T01:47:19;22.80;35.70
6375;DHT22;35400;45.472;-122.822;2023-06-05T01:49:48;22.80;35.40
6375;DHT22;35400;45.472;-122.822;2023-06-05T01:52:15;22.80;35.00
6375;DHT22;35400;45.472;-122.822;2023-06-05T01:54:42;22.70;35.20
6375;DHT22;35400;45.472;-122.822;2023-06-05T01:57:08;22.70;34.30
6375;DHT22;35400;45.472;-122.822;2023-06-05T01:59:41;22.60;34.00
6375;DHT22;35400;45.472;-122.822;2023-06-05T02:02:09;22.60;34.00
6375;DHT22;35400;45.472;-122.822;2023-06-05T02:04:36;22.60;34.70
6375;DHT22;35400;45.472;-122.822;2023-06-05T02:07:05;22.60;34.40
6375;DHT22;35400;45.472;-122.822;2023-06-05T02:09:33;22.50;34.00
6375;DHT22;35400;45.472;-122.822;2023-06-05T02:12:00;22.50;34.30
6375;DHT22;35400;45.472;-122.822;2023-06-05T02:14:32;22.40;34.00
6375;DHT22;35400;45.472;-122.822;2023-06-05T02:17:03;22.40;34.00
6375;DHT22;35400;45.472;-122.822;2023-06-05T02:19:33;22.30;33.90
6375;DHT22;35400;45.472;-122.822;2023-06-05T02:22:00;22.30;33.70
6375;DHT22;35400;45.472;-122.822;2023-06-05T02:24:27;22.30;34.20
6375;DHT22;35400;45.472;-122.822;2023-06-05T02:26:54;22.20;34.00
6375;DHT22;35400;45.472;-122.822;2023-06-05T02:29:23;22.20;34.10
6375;DHT22;35400;45.472;-122.822;2023-06-05T02:31:50;22.20;34.60
6375;DHT22;35400;45.472;-122.822;2023-06-05T02:34:17;22.10;34.70
6375;DHT22;35400;45.472;-122.822;2023-06-05T02:36:44;22.10;34.70
6375;DHT22;35400;45.472;-122.822;2023-06-05T02:39:12;22.10;33.50
6375;DHT22;35400;45.472;-122.822;2023-06-05T02:41:39;22.00;33.50
6375;DHT22;35400;45.472;-122.822;2023-06-05T02:44:06;22.00;33.30
6375;DHT22;35400;45.472;-122.822;2023-06-05T02:46:33;22.00;33.20
6375;DHT22;35400;45.472;-122.822;2023-06-05T02:49:01;21.90;32.20
6375;DHT22;35400;45.472;-122.822;2023-06-05T02:51:28;21.90;32.40
6375;DHT22;35400;45.472;-122.822;2023-06-05T02:53:55;21.80;32.10
6375;DHT22;35400;45.472;-122.822;2023-06-05T02:56:23;21.80;32.80
6375;DHT22;35400;45.472;-122.822;2023-06-05T02:58:53;21.70;33.10
6375;DHT22;35400;45.472;-122.822;2023-06-05T03:01:20;21.70;33.80
6375;DHT22;35400;45.472;-122.822;2023-06-05T03:03:47;21.60;34.50
6375;DHT22;35400;45.472;-122.822;2023-06-05T03:06:16;21.60;35.30
6375;DHT22;35400;45.472;-122.822;2023-06-05T03:08:47;21.50;36.30
6375;DHT22;35400;45.472;-122.822;2023-06-05T03:11:18;21.50;37.00
6375;DHT22;35400;45.472;-122.822;2023-06-05T03:13:44;21.50;37.70
6375;DHT22;35400;45.472;-122.822;2023-06-05T03:16:11;21.40;38.10
6375;DHT22;35400;45.472;-122.822;2023-06-05T03:18:44;21.30;38.20
6375;DHT22;35400;45.472;-122.822;2023-06-05T03:21:14;21.30;38.70
6375;DHT22;35400;45.472;-122.822;2023-06-05T03:23:42;21.20;39.00
6375;DHT22;35400;45.472;-122.822;2023-06-05T03:26:11;21.10;39.10
6375;DHT22;35400;45.472;-122.822;2023-06-05T03:28:38;21.10;39.20
6375;DHT22;35400;45.472;-122.822;2023-06-05T03:31:09;21.00;38.00
6375;DHT22;35400;45.472;-122.822;2023-06-05T03:33:40;20.90;38.50
6375;DHT22;35400;45.472;-122.822;2023-06-05T03:36:08;20.80;38.70
6375;DHT22;35400;45.472;-122.822;2023-06-05T03:38:35;20.80;38.50
6375;DHT22;35400;45.472;-122.822;2023-06-05T03:41:02;20.70;38.50
6375;DHT22;35400;45.472;-122.822;2023-06-05T03:43:29;20.60;38.30
6375;DHT22;35400;45.472;-122.822;2023-06-05T03:45:56;20.60;37.70
6375;DHT22;35400;45.472;-122.822;2023-06-05T03:48:25;20.50;37.80
6375;DHT22;35400;45.472;-122.822;2023-06-05T03:50:53;20.50;37.80
6375;DHT22;35400;45.472;-122.822;2023-06-05T03:53:22;20.40;38.00
6375;DHT22;35400;45.472;-122.822;2023-06-05T03:55:49;20.30;37.20
6375;DHT22;35400;45.472;-122.822;2023-06-05T03:58:25;20.30;37.50
6375;DHT22;35400;45.472;-122.822;2023-06-05T04:00:54;20.20;37.50
6375;DHT22;35400;45.472;-122.822;2023-06-05T04:03:21;20.20;37.50
6375;DHT22;35400;45.472;-122.822;2023-06-05T04:05:51;20.10;37.90
6375;DHT22;35400;45.472;-122.822;2023-06-05T04:08:18;20.10;38.70
6375;DHT22;35400;45.472;-122.822;2023-06-05T04:10:45;20.00;40.90
6375;DHT22;35400;45.472;-122.822;2023-06-05T04:13:12;20.00;42.10
6375;DHT22;35400;45.472;-122.822;2023-06-05T04:15:39;19.90;48.50
6375;DHT22;35400;45.472;-122.822;2023-06-05T04:18:07;19.80;54.30
6375;DHT22;35400;45.472;-122.822;2023-06-05T04:20:34;19.70;56.80
6375;DHT22;35400;45.472;-122.822;2023-06-05T04:23:02;19.60;58.50
6375;DHT22;35400;45.472;-122.822;2023-06-05T04:25:31;19.50;59.10
6375;DHT22;35400;45.472;-122.822;2023-06-05T04:27:57;19.40;59.80
6375;DHT22;35400;45.472;-122.822;2023-06-05T04:30:24;19.30;60.60
6375;DHT22;35400;45.472;-122.822;2023-06-05T04:32:51;19.20;62.00
6375;DHT22;35400;45.472;-122.822;2023-06-05T04:35:22;19.10;62.70
6375;DHT22;35400;45.472;-122.822;2023-06-05T04:37:49;19.00;62.90
6375;DHT22;35400;45.472;-122.822;2023-06-05T04:40:18;18.90;64.00
6375;DHT22;35400;45.472;-122.822;2023-06-05T04:42:48;18.80;64.20
6375;DHT22;35400;45.472;-122.822;2023-06-05T04:45:16;18.70;64.80
6375;DHT22;35400;45.472;-122.822;2023-06-05T04:47:46;18.60;65.70
6375;DHT22;35400;45.472;-122.822;2023-06-05T04:50:28;18.50;65.80
6375;DHT22;35400;45.472;-122.822;2023-06-05T04:53:06;18.40;66.10
6375;DHT22;35400;45.472;-122.822;2023-06-05T04:55:35;18.30;67.00
6375;DHT22;35400;45.472;-122.822;2023-06-05T04:58:02;18.20;66.90
6375;DHT22;35400;45.472;-122.822;2023-06-05T05:00:32;18.10;67.30
6375;DHT22;35400;45.472;-122.822;2023-06-05T05:03:01;18.00;67.30
6375;DHT22;35400;45.472;-122.822;2023-06-05T05:05:28;17.90;67.50
6375;DHT22;35400;45.472;-122.822;2023-06-05T05:07:56;17.80;67.90
6375;DHT22;35400;45.472;-122.822;2023-06-05T05:10:26;17.70;68.10
6375;DHT22;35400;45.472;-122.822;2023-06-05T05:12:53;17.60;68.10
6375;DHT22;35400;45.472;-122.822;2023-06-05T05:15:20;17.50;68.30
6375;DHT22;35400;45.472;-122.822;2023-06-05T05:17:48;17.40;68.60
6375;DHT22;35400;45.472;-122.822;2023-06-05T05:20:15;17.40;68.70
6375;DHT22;35400;45.472;-122.822;2023-06-05T05:22:43;17.30;68.90
6375;DHT22;35400;45.472;-122.822;2023-06-05T05:25:10;17.20;69.10
6375;DHT22;35400;45.472;-122.822;2023-06-05T05:27:37;17.10;69.20
6375;DHT22;35400;45.472;-122.822;2023-06-05T05:30:04;17.10;70.30
6375;DHT22;35400;45.472;-122.822;2023-06-05T05:32:31;17.00;69.60
6375;DHT22;35400;45.472;-122.822;2023-06-05T05:34:59;16.90;69.70
6375;DHT22;35400;45.472;-122.822;2023-06-05T05:37:26;16.80;69.80
6375;DHT22;35400;45.472;-122.822;2023-06-05T05:39:53;16.80;69.80
6375;DHT22;35400;45.472;-122.822;2023-06-05T05:42:20;16.70;69.90
6375;DHT22;35400;45.472;-122.822;2023-06-05T05:44:47;16.70;70.20
6375;DHT22;35400;45.472;-122.822;2023-06-05T05:47:14;16.60;70.30
6375;DHT22;35400;45.472;-122.822;2023-06-05T05:49:41;16.50;70.70
6375;DHT22;35400;45.472;-122.822;2023-06-05T05:52:09;16.50;70.80
6375;DHT22;35400;45.472;-122.822;2023-06-05T05:54:36;16.40;70.60
6375;DHT22;35400;45.472;-122.822;2023-06-05T05:57:03;16.30;71.10
6375;DHT22;35400;45.472;-122.822;2023-06-05T05:59:31;16.30;70.90
6375;DHT22;35400;45.472;-122.822;2023-06-05T06:01:57;16.20;71.40
6375;DHT22;35400;45.472;-122.822;2023-06-05T06:04:26;16.20;70.90
6375;DHT22;35400;45.472;-122.822;2023-06-05T06:06:52;16.10;70.60
6375;DHT22;35400;45.472;-122.822;2023-06-05T06:09:22;16.00;70.60
6375;DHT22;35400;45.472;-122.822;2023-06-05T06:11:49;16.00;70.70
6375;DHT22;35400;45.472;-122.822;2023-06-05T06:14:16;15.90;70.70
6375;DHT22;35400;45.472;-122.822;2023-06-05T06:16:42;15.90;70.90
6375;DHT22;35400;45.472;-122.822;2023-06-05T06:19:09;15.80;70.80
6375;DHT22;35400;45.472;-122.822;2023-06-05T06:21:40;15.80;71.00
6375;DHT22;35400;45.472;-122.822;2023-06-05T06:24:07;15.70;71.30
6375;DHT22;35400;45.472;-122.822;2023-06-05T06:26:34;15.70;71.30
6375;DHT22;35400;45.472;-122.822;2023-06-05T06:29:04;15.60;71.10
6375;DHT22;35400;45.472;-122.822;2023-06-05T06:31:31;15.50;70.90
6375;DHT22;35400;45.472;-122.822;2023-06-05T06:33:58;15.50;71.00
6375;DHT22;35400;45.472;-122.822;2023-06-05T06:36:26;15.40;70.90
6375;DHT22;35400;45.472;-122.822;2023-06-05T06:38:53;15.40;71.00
6375;DHT22;35400;45.472;-122.822;2023-06-05T06:41:20;15.40;70.30
6375;DHT22;35400;45.472;-122.822;2023-06-05T06:43:47;15.30;69.90
6375;DHT22;35400;45.472;-122.822;2023-06-05T06:46:14;15.30;69.80
6375;DHT22;35400;45.472;-122.822;2023-06-05T06:48:41;15.20;70.00
6375;DHT22;35400;45.472;-122.822;2023-06-05T06:51:08;15.10;70.30
6375;DHT22;35400;45.472;-122.822;2023-06-05T06:53:35;15.10;70.70
6375;DHT22;35400;45.472;-122.822;2023-06-05T06:56:02;15.00;70.90
6375;DHT22;35400;45.472;-122.822;2023-06-05T06:58:29;15.00;71.00
6375;DHT22;35400;45.472;-122.822;2023-06-05T07:00:56;14.90;70.40
6375;DHT22;35400;45.472;-122.822;2023-06-05T07:03:23;14.90;70.30
6375;DHT22;35400;45.472;-122.822;2023-06-05T07:05:50;14.90;70.30
6375;DHT22;35400;45.472;-122.822;2023-06-05T07:08:17;14.80;70.70
6375;DHT22;35400;45.472;-122.822;2023-06-05T07:10:44;14.80;70.80
6375;DHT22;35400;45.472;-122.822;2023-06-05T07:13:11;14.70;70.80
6375;DHT22;35400;45.472;-122.822;2023-06-05T07:15:38;14.70;71.00
6375;DHT22;35400;45.472;-122.822;2023-06-05T07:18:05;14.60;71.00
6375;DHT22;35400;45.472;-122.822;2023-06-05T07:20:32;14.60;71.50
6375;DHT22;35400;45.472;-122.822;2023-06-05T07:22:59;14.50;71.60
6375;DHT22;35400;45.472;-122.822;2023-06-05T07:25:26;14.50;71.80
6375;DHT22;35400;45.472;-122.822;2023-06-05T07:27:54;14.40;71.50
6375;DHT22;35400;45.472;-122.822;2023-06-05T07:30:21;14.40;71.30
6375;DHT22;35400;45.472;-122.822;2023-06-05T07:32:48;14.30;71.20
6375;DHT22;35400;45.472;-122.822;2023-06-05T07:35:14;14.30;71.10
6375;DHT22;35400;45.472;-122.822;2023-06-05T07:37:41;14.20;71.00
6375;DHT22;35400;45.472;-122.822;2023-06-05T07:40:08;14.20;71.20
6375;DHT22;35400;45.472;-122.822;2023-06-05T07:42:36;14.20;71.50
6375;DHT22;35400;45.472;-122.822;2023-06-05T07:45:03;14.10;72.40
6375;DHT22;35400;45.472;-122.822;2023-06-05T07:47:30;14.00;71.50
6375;DHT22;35400;45.472;-122.822;2023-06-05T07:49:58;14.00;71.50
6375;DHT22;35400;45.472;-122.822;2023-06-05T07:52:26;13.90;71.40
6375;DHT22;35400;45.472;-122.822;2023-06-05T07:54:53;13.90;71.50
6375;DHT22;35400;45.472;-122.822;2023-06-05T07:57:20;13.80;71.50
6375;DHT22;35400;45.472;-122.822;2023-06-05T07:59:48;13.80;71.70
6375;DHT22;35400;45.472;-122.822;2023-06-05T08:02:15;13.70;71.90
6375;DHT22;35400;45.472;-122.822;2023-06-05T08:04:42;13.70;72.50
6375;DHT22;35400;45.472;-122.822;2023-06-05T08:07:09;13.60;72.60
6375;DHT22;35400;45.472;-122.822;2023-06-05T08:09:36;13.60;72.80
6375;DHT22;35400;45.472;-122.822;2023-06-05T08:12:04;13.50;72.70
6375;DHT22;35400;45.472;-122.822;2023-06-05T08:14:31;13.50;72.90
6375;DHT22;35400;45.472;-122.822;2023-06-05T08:16:58;13.40;73.00
6375;DHT22;35400;45.472;-122.822;2023-06-05T08:19:25;13.40;73.00
6375;DHT22;35400;45.472;-122.822;2023-06-05T08:21:53;13.30;73.10
6375;DHT22;35400;45.472;-122.822;2023-06-05T08:24:26;13.30;73.30
6375;DHT22;35400;45.472;-122.822;2023-06-05T08:26:55;13.20;73.20
6375;DHT22;35400;45.472;-122.822;2023-06-05T08:29:22;13.20;73.40
6375;DHT22;35400;45.472;-122.822;2023-06-05T08:31:49;13.20;73.40
6375;DHT22;35400;45.472;-122.822;2023-06-05T08:34:17;13.10;73.90
6375;DHT22;35400;45.472;-122.822;2023-06-05T08:36:44;13.10;73.30
6375;DHT22;35400;45.472;-122.822;2023-06-05T08:39:11;13.10;73.40
6375;DHT22;35400;45.472;-122.822;2023-06-05T08:41:39;13.00;73.70
6375;DHT22;35400;45.472;-122.822;2023-06-05T08:44:06;13.00;73.80
6375;DHT22;35400;45.472;-122.822;2023-06-05T08:46:36;13.00;73.70
6375;DHT22;35400;45.472;-122.822;2023-06-05T08:49:10;12.90;73.70
6375;DHT22;35400;45.472;-122.822;2023-06-05T08:51:39;12.90;73.80
6375;DHT22;35400;45.472;-122.822;2023-06-05T08:54:09;12.80;73.70
6375;DHT22;35400;45.472;-122.822;2023-06-05T08:56:40;12.80;73.70
6375;DHT22;35400;45.472;-122.822;2023-06-05T08:59:08;12.80;73.90
6375;DHT22;35400;45.472;-122.822;2023-06-05T09:01:36;12.70;73.90
6375;DHT22;35400;45.472;-122.822;2023-06-05T09:04:03;12.70;73.80
6375;DHT22;35400;45.472;-122.822;2023-06-05T09:06:30;12.60;73.70
6375;DHT22;35400;45.472;-122.822;2023-06-05T09:09:00;12.60;73.80
6375;DHT22;35400;45.472;-122.822;2023-06-05T09:11:31;12.60;73.90
6375;DHT22;35400;45.472;-122.822;2023-06-05T09:14:00;12.50;73.90
6375;DHT22;35400;45.472;-122.822;2023-06-05T09:19:05;12.50;74.40
6375;DHT22;35400;45.472;-122.822;2023-06-05T09:21:32;12.40;74.10
6375;DHT22;35400;45.472;-122.822;2023-06-05T09:24:22;12.40;74.20
6375;DHT22;35400;45.472;-122.822;2023-06-05T09:27:01;12.40;74.10
6375;DHT22;35400;45.472;-122.822;2023-06-05T09:29:36;12.40;74.30
6375;DHT22;35400;45.472;-122.822;2023-06-05T09:32:07;12.30;74.40
6375;DHT22;35400;45.472;-122.822;2023-06-05T09:34:37;12.30;74.60
6375;DHT22;35400;45.472;-122.822;2023-06-05T09:37:09;12.30;74.70
6375;DHT22;35400;45.472;-122.822;2023-06-05T09:39:38;12.30;74.40
6375;DHT22;35400;45.472;-122.822;2023-06-05T09:42:06;12.20;74.40
6375;DHT22;35400;45.472;-122.822;2023-06-05T09:44:33;12.20;74.60
6375;DHT22;35400;45.472;-122.822;2023-06-05T09:47:02;12.20;74.00
6375;DHT22;35400;45.472;-122.822;2023-06-05T09:52:07;12.20;74.00
6375;DHT22;35400;45.472;-122.822;2023-06-05T09:54:37;12.20;73.90
6375;DHT22;35400;45.472;-122.822;2023-06-05T09:57:07;12.10;73.60
6375;DHT22;35400;45.472;-122.822;2023-06-05T09:59:55;12.10;73.60
6375;DHT22;35400;45.472;-122.822;2023-06-05T10:02:32;12.00;73.40
6375;DHT22;35400;45.472;-122.822;2023-06-05T10:05:01;12.00;73.40
6375;DHT22;35400;45.472;-122.822;2023-06-05T10:07:33;12.00;73.60
6375;DHT22;35400;45.472;-122.822;2023-06-05T10:10:02;11.90;73.50
6375;DHT22;35400;45.472;-122.822;2023-06-05T10:12:30;11.90;73.60
6375;DHT22;35400;45.472;-122.822;2023-06-05T10:14:57;11.90;73.70
6375;DHT22;35400;45.472;-122.822;2023-06-05T10:17:25;11.80;73.60
6375;DHT22;35400;45.472;-122.822;2023-06-05T10:19:53;11.80;73.60
6375;DHT22;35400;45.472;-122.822;2023-06-05T10:22:19;11.80;73.60
6375;DHT22;35400;45.472;-122.822;2023-06-05T10:24:54;11.70;74.30
6375;DHT22;35400;45.472;-122.822;2023-06-05T10:27:40;11.70;74.20
6375;DHT22;35400;45.472;-122.822;2023-06-05T10:35:57;11.60;74.50
6375;DHT22;35400;45.472;-122.822;2023-06-05T10:38:27;11.50;74.60
6375;DHT22;35400;45.472;-122.822;2023-06-05T10:40:58;11.40;74.60
6375;DHT22;35400;45.472;-122.822;2023-06-05T10:43:51;11.40;75.00
6375;DHT22;35400;45.472;-122.822;2023-06-05T10:46:27;11.30;75.20
6375;DHT22;35400;45.472;-122.822;2023-06-05T10:49:14;11.20;75.50
6375;DHT22;35400;45.472;-122.822;2023-06-05T10:51:49;11.20;75.90
6375;DHT22;35400;45.472;-122.822;2023-06-05T10:59:20;11.00;76.10
6375;DHT22;35400;45.472;-122.822;2023-06-05T11:07:24;10.80;76.90
6375;DHT22;35400;45.472;-122.822;2023-06-05T11:15:34;10.70;77.00
6375;DHT22;35400;45.472;-122.822;2023-06-05T11:18:28;10.60;77.10
6375;DHT22;35400;45.472;-122.822;2023-06-05T11:20:55;10.60;77.60
6375;DHT22;35400;45.472;-122.822;2023-06-05T11:23:23;10.50;77.50
6375;DHT22;35400;45.472;-122.822;2023-06-05T11:25:55;10.50;77.70
6375;DHT22;35400;45.472;-122.822;2023-06-05T11:28:41;10.40;77.60
6375;DHT22;35400;45.472;-122.822;2023-06-05T11:31:09;10.40;77.50
6375;DHT22;35400;45.472;-122.822;2023-06-05T11:33:36;10.40;77.40
6375;DHT22;35400;45.472;-122.822;2023-06-05T11:36:06;10.30;77.20
6375;DHT22;35400;45.472;-122.822;2023-06-05T11:38:38;10.30;77.30
6375;DHT22;35400;45.472;-122.822;2023-06-05T11:41:08;10.20;77.70
6375;DHT22;35400;45.472;-122.822;2023-06-05T11:43:42;10.20;77.90
6375;DHT22;35400;45.472;-122.822;2023-06-05T11:46:09;10.10;78.10
6375;DHT22;35400;45.472;-122.822;2023-06-05T11:48:43;10.10;78.20
6375;DHT22;35400;45.472;-122.822;2023-06-05T11:51:11;10.00;78.30
6375;DHT22;35400;45.472;-122.822;2023-06-05T11:56:15;9.90;79.00
6375;DHT22;35400;45.472;-122.822;2023-06-05T11:58:45;9.90;80.00
6375;DHT22;35400;45.472;-122.822;2023-06-05T12:01:17;9.80;80.30
6375;DHT22;35400;45.472;-122.822;2023-06-05T12:03:45;9.70;80.40
6375;DHT22;35400;45.472;-122.822;2023-06-05T12:06:13;9.70;80.60
6375;DHT22;35400;45.472;-122.822;2023-06-05T12:08:40;9.70;80.80
6375;DHT22;35400;45.472;-122.822;2023-06-05T12:11:25;9.60;81.10
6375;DHT22;35400;45.472;-122.822;2023-06-05T12:13:54;9.60;81.20
6375;DHT22;35400;45.472;-122.822;2023-06-05T12:16:41;9.50;81.40
6375;DHT22;35400;45.472;-122.822;2023-06-05T12:19:19;9.50;81.70
6375;DHT22;35400;45.472;-122.822;2023-06-05T12:21:47;9.50;81.80
6375;DHT22;35400;45.472;-122.822;2023-06-05T12:24:15;9.40;81.90
6375;DHT22;35400;45.472;-122.822;2023-06-05T12:26:53;9.40;82.40
6375;DHT22;35400;45.472;-122.822;2023-06-05T12:29:24;9.40;82.50
6375;DHT22;35400;45.472;-122.822;2023-06-05T12:31:51;9.40;82.60
6375;DHT22;35400;45.472;-122.822;2023-06-05T12:34:18;9.30;83.20
6375;DHT22;35400;45.472;-122.822;2023-06-05T12:36:45;9.30;83.20
6375;DHT22;35400;45.472;-122.822;2023-06-05T12:39:13;9.30;83.20
6375;DHT22;35400;45.472;-122.822;2023-06-05T12:41:42;9.30;83.30
6375;DHT22;35400;45.472;-122.822;2023-06-05T12:44:10;9.30;83.50
6375;DHT22;35400;45.472;-122.822;2023-06-05T12:46:38;9.30;83.90
6375;DHT22;35400;45.472;-122.822;2023-06-05T12:49:05;9.30;83.90
6375;DHT22;35400;45.472;-122.822;2023-06-05T12:51:32;9.30;84.30
6375;DHT22;35400;45.472;-122.822;2023-06-05T12:53:59;9.30;84.50
6375;DHT22;35400;45.472;-122.822;2023-06-05T12:56:26;9.30;84.50
6375;DHT22;35400;45.472;-122.822;2023-06-05T12:58:56;9.30;85.30
6375;DHT22;35400;45.472;-122.822;2023-06-05T13:01:25;9.30;85.40
6375;DHT22;35400;45.472;-122.822;2023-06-05T13:03:52;9.30;85.40
6375;DHT22;35400;45.472;-122.822;2023-06-05T13:06:19;9.40;85.50
6375;DHT22;35400;45.472;-122.822;2023-06-05T13:08:46;9.40;85.40
6375;DHT22;35400;45.472;-122.822;2023-06-05T13:11:14;9.50;85.40
6375;DHT22;35400;45.472;-122.822;2023-06-05T13:13:41;9.60;85.90
6375;DHT22;35400;45.472;-122.822;2023-06-05T13:16:09;9.70;86.70
6375;DHT22;35400;45.472;-122.822;2023-06-05T13:18:36;9.70;86.70
6375;DHT22;35400;45.472;-122.822;2023-06-05T13:21:03;9.80;86.60
6375;DHT22;35400;45.472;-122.822;2023-06-05T13:23:31;9.90;86.60
6375;DHT22;35400;45.472;-122.822;2023-06-05T13:25:59;10.00;85.70
6375;DHT22;35400;45.472;-122.822;2023-06-05T13:28:27;10.10;85.80
6375;DHT22;35400;45.472;-122.822;2023-06-05T13:30:55;10.20;85.70
6375;DHT22;35400;45.472;-122.822;2023-06-05T13:33:22;10.40;85.60
6375;DHT22;35400;45.472;-122.822;2023-06-05T13:35:51;10.60;85.30
6375;DHT22;35400;45.472;-122.822;2023-06-05T13:38:20;10.80;85.50
6375;DHT22;35400;45.472;-122.822;2023-06-05T13:40:49;11.00;85.50
6375;DHT22;35400;45.472;-122.822;2023-06-05T13:43:18;11.30;85.70
6375;DHT22;35400;45.472;-122.822;2023-06-05T13:45:46;11.60;85.40
6375;DHT22;35400;45.472;-122.822;2023-06-05T13:48:13;12.10;84.40
6375;DHT22;35400;45.472;-122.822;2023-06-05T13:50:40;12.60;83.00
6375;DHT22;35400;45.472;-122.822;2023-06-05T13:53:07;13.00;81.50
6375;DHT22;35400;45.472;-122.822;2023-06-05T13:55:34;13.20;80.30
6375;DHT22;35400;45.472;-122.822;2023-06-05T13:58:01;13.40;79.00
6375;DHT22;35400;45.472;-122.822;2023-06-05T14:00:29;13.70;78.70
6375;DHT22;35400;45.472;-122.822;2023-06-05T14:02:57;14.10;78.10
6375;DHT22;35400;45.472;-122.822;2023-06-05T14:05:24;14.60;76.90
6375;DHT22;35400;45.472;-122.822;2023-06-05T14:07:52;14.90;76.00
6375;DHT22;35400;45.472;-122.822;2023-06-05T14:10:21;15.30;75.30
6375;DHT22;35400;45.472;-122.822;2023-06-05T14:12:49;15.60;73.50
6375;DHT22;35400;45.472;-122.822;2023-06-05T14:15:20;15.60;72.30
6375;DHT22;35400;45.472;-122.822;2023-06-05T14:17:50;15.50;72.30
6375;DHT22;35400;45.472;-122.822;2023-06-05T14:20:18;15.50;72.00
6375;DHT22;35400;45.472;-122.822;2023-06-05T14:22:45;15.40;71.80
6375;DHT22;35400;45.472;-122.822;2023-06-05T14:25:12;15.40;70.80
6375;DHT22;35400;45.472;-122.822;2023-06-05T14:27:39;15.40;69.40
6375;DHT22;35400;45.472;-122.822;2023-06-05T14:30:06;15.30;69.80
6375;DHT22;35400;45.472;-122.822;2023-06-05T14:32:35;15.30;70.00
6375;DHT22;35400;45.472;-122.822;2023-06-05T14:35:02;15.30;70.20
6375;DHT22;35400;45.472;-122.822;2023-06-05T14:37:29;15.30;70.10
6375;DHT22;35400;45.472;-122.822;2023-06-05T14:39:56;15.30;69.70
6375;DHT22;35400;45.472;-122.822;2023-06-05T14:42:23;15.30;70.10
6375;DHT22;35400;45.472;-122.822;2023-06-05T14:44:50;15.30;68.20
6375;DHT22;35400;45.472;-122.822;2023-06-05T14:47:17;15.40;67.50
6375;DHT22;35400;45.472;-122.822;2023-06-05T14:49:44;15.70;66.80
6375;DHT22;35400;45.472;-122.822;2023-06-05T14:52:11;16.00;66.00
6375;DHT22;35400;45.472;-122.822;2023-06-05T14:54:38;16.10;65.90
6375;DHT22;35400;45.472;-122.822;2023-06-05T14:57:05;16.50;66.30
6375;DHT22;35400;45.472;-122.822;2023-06-05T14:59:32;17.20;65.70
6375;DHT22;35400;45.472;-122.822;2023-06-05T15:01:59;18.40;63.70
6375;DHT22;35400;45.472;-122.822;2023-06-05T15:04:26;19.80;62.00
6375;DHT22;35400;45.472;-122.822;2023-06-05T15:06:54;21.20;60.00
6375;DHT22;35400;45.472;-122.822;2023-06-05T15:09:21;22.20;56.50
6375;DHT22;35400;45.472;-122.822;2023-06-05T15:11:49;22.80;55.00
6375;DHT22;35400;45.472;-122.822;2023-06-05T15:14:22;23.10;54.10
6375;DHT22;35400;45.472;-122.822;2023-06-05T15:16:50;23.30;51.70
6375;DHT22;35400;45.472;-122.822;2023-06-05T15:19:17;23.40;51.60
6375;DHT22;35400;45.472;-122.822;2023-06-05T15:21:44;23.40;51.40
6375;DHT22;35400;45.472;-122.822;2023-06-05T15:24:11;23.10;50.90
6375;DHT22;35400;45.472;-122.822;2023-06-05T15:26:38;22.90;51.20
6375;DHT22;35400;45.472;-122.822;2023-06-05T15:29:05;22.70;52.60
6375;DHT22;35400;45.472;-122.822;2023-06-05T15:31:32;22.50;52.50
6375;DHT22;35400;45.472;-122.822;2023-06-05T15:33:59;22.40;52.30
6375;DHT22;35400;45.472;-122.822;2023-06-05T15:36:26;22.30;52.10
6375;DHT22;35400;45.472;-122.822;2023-06-05T15:38:53;22.40;52.50
6375;DHT22;35400;45.472;-122.822;2023-06-05T15:41:22;22.40;52.30
6375;DHT22;35400;45.472;-122.822;2023-06-05T15:43:50;22.40;51.70
6375;DHT22;35400;45.472;-122.822;2023-06-05T15:46:16;22.40;51.00